Larchwood, Iowa
Current Conditions -  °F | °C
As of 6:54 PM on Wednesday 22 Oct 2014 (Local Time) from KLYV Reporting Station
Moderate Rain Moderate Rain  
Wind Chill: 61°   Ceiling: 3700
Heat Index: 61°   Visibility: 5mi
Dew Point: 57°   Wind: 6mph
Humidity: 88%   Direction: 180°S
Pressure: 29.99"   Gusts: NA
Location:  43.45°N, 96.43°W
Report Text: KLYV 222354Z AUTO 18005KT 5SM RA SCT006 BKN037 OVC046 16/14 A2999 RMK AO2 P0012
Loading
Personal Weather Stations






























Interactive Weather Map
Tropical Storm Tracking
New forecast layout! Learn more

10-Day Weather Forecast

Advertisements
Track Severe Weather on mobile